Time;durP1;ratioP1;P1;durP2;ratioP2;P2;SDS_P1;SDS_P2;PMS_P1;PMS_P2;Temp;Humidity;BMP_temperature;BMP_pressure;BME280_temperature;BME280_humidity;BME280_pressure;Samples;Min_cycle;Max_cycle;Signal;HPM_P1;HPM_P2
2021/10/14 00:01:40;;;;;;;15.27;4.50;;;11.90;90.70;;;;;;5004688;28;20032;-81
2021/10/14 00:04:07;;;;;;;14.02;4.20;;;11.90;90.70;;;;;;5026668;28;20057;-81
2021/10/14 00:06:32;;;;;;;10.88;3.60;;;12.00;90.70;;;;;;5013682;28;20053;-81
2021/10/14 00:08:58;;;;;;;8.90;4.30;;;11.90;90.60;;;;;;5009326;28;20064;-81
2021/10/14 00:11:24;;;;;;;9.18;3.90;;;11.90;90.70;;;;;;5017764;28;20039;-81
2021/10/14 00:13:50;;;;;;;18.42;4.18;;;11.90;90.70;;;;;;5052497;28;20036;-81
2021/10/14 00:16:16;;;;;;;11.18;3.97;;;11.90;90.60;;;;;;5032261;28;20039;-81
2021/10/14 00:18:42;;;;;;;6.05;3.55;;;12.00;90.60;;;;;;5033853;28;20461;-81
2021/10/14 00:21:08;;;;;;;8.45;3.58;;;12.00;90.70;;;;;;5017910;28;20078;-81
2021/10/14 00:23:34;;;;;;;11.18;3.95;;;11.90;90.60;;;;;;5011403;28;20392;-81
2021/10/14 00:26:00;;;;;;;7.85;4.05;;;11.90;90.60;;;;;;5034341;28;20029;-81
2021/10/14 00:28:26;;;;;;;10.18;3.83;;;12.00;90.90;;;;;;5034295;28;20487;-81
2021/10/14 00:30:51;;;;;;;17.45;4.05;;;12.00;90.60;;;;;;5033673;28;20171;-81
2021/10/14 00:33:17;;;;;;;12.88;4.18;;;12.00;90.60;;;;;;5029442;28;20092;-81
2021/10/14 00:35:43;;;;;;;13.40;4.20;;;12.00;90.60;;;;;;5007191;28;20456;-81
2021/10/14 00:38:08;;;;;;;8.25;3.85;;;12.00;90.80;;;;;;5047368;28;20068;-81
2021/10/14 00:40:34;;;;;;;13.30;4.72;;;11.90;90.80;;;;;;5017423;28;20454;-81
2021/10/14 00:43:00;;;;;;;14.60;4.82;;;11.90;90.80;;;;;;5048785;28;20061;-81
2021/10/14 00:45:26;;;;;;;13.27;4.28;;;12.00;90.80;;;;;;5019466;28;20041;-81
2021/10/14 00:47:51;;;;;;;12.60;5.00;;;11.90;90.70;;;;;;5030640;28;20038;-81
2021/10/14 00:50:17;;;;;;;13.93;4.85;;;11.90;90.70;;;;;;5033546;28;20041;-81
2021/10/14 00:52:43;;;;;;;12.43;4.80;;;11.90;90.80;;;;;;5024678;28;20477;-81
2021/10/14 00:55:11;;;;;;;22.50;5.53;;;11.90;90.80;;;;;;5057280;28;20027;-81
2021/10/14 00:57:37;;;;;;;10.75;5.35;;;11.90;90.70;;;;;;5047277;28;20025;-81
2021/10/14 01:00:05;;;;;;;15.60;6.10;;;11.90;90.70;;;;;;5012936;28;20032;-81
2021/10/14 01:02:31;;;;;;;19.40;5.63;;;11.80;90.70;;;;;;5026476;28;20561;-81
2021/10/14 01:04:56;;;;;;;13.05;5.43;;;11.80;90.80;;;;;;5008685;28;20090;-81
2021/10/14 01:07:22;;;;;;;14.07;6.05;;;11.80;90.90;;;;;;5014435;28;20030;-81
2021/10/14 01:09:48;;;;;;;12.90;5.82;;;11.80;91.00;;;;;;5006631;28;20038;-81
2021/10/14 01:12:14;;;;;;;17.42;6.68;;;11.80;91.20;;;;;;5029323;28;20029;-81
2021/10/14 01:14:40;;;;;;;14.27;6.70;;;11.70;91.20;;;;;;5022970;28;20025;-81
2021/10/14 01:17:06;;;;;;;9.50;5.82;;;11.70;91.40;;;;;;5044196;28;20180;-81
2021/10/14 01:19:32;;;;;;;16.55;6.35;;;11.60;91.50;;;;;;5025021;28;20078;-81
2021/10/14 01:21:57;;;;;;;14.50;5.55;;;11.60;91.60;;;;;;5022357;28;20033;-81
2021/10/14 01:24:23;;;;;;;13.52;6.75;;;11.70;91.80;;;;;;5013560;28;20036;-81
2021/10/14 01:26:49;;;;;;;12.82;6.18;;;11.60;91.90;;;;;;5039745;28;20477;-82
2021/10/14 01:29:15;;;;;;;13.80;6.82;;;11.60;92.00;;;;;;5027111;28;20541;-81
2021/10/14 01:31:41;;;;;;;11.52;6.93;;;11.60;92.10;;;;;;5028582;28;20029;-81
2021/10/14 01:34:08;;;;;;;14.20;6.95;;;11.60;92.20;;;;;;5044116;28;20045;-81
2021/10/14 01:36:34;;;;;;;12.00;6.28;;;11.60;92.30;;;;;;5030956;28;20485;-81
2021/10/14 01:38:59;;;;;;;15.68;6.20;;;11.60;92.40;;;;;;5016328;28;20036;-81
2021/10/14 01:41:25;;;;;;;14.85;6.93;;;11.60;92.50;;;;;;5041229;28;20030;-84
2021/10/14 01:43:51;;;;;;;14.43;7.85;;;11.50;92.50;;;;;;5033502;28;20079;-84
2021/10/14 01:46:17;;;;;;;12.18;7.63;;;11.50;92.60;;;;;;5023304;28;20028;-84
2021/10/14 01:48:42;;;;;;;14.40;8.15;;;11.50;92.70;;;;;;5016449;28;20100;-84
2021/10/14 01:51:10;;;;;;;16.60;7.63;;;11.50;92.70;;;;;;5050765;28;20485;-84
2021/10/14 01:53:36;;;;;;;13.25;7.80;;;11.50;92.80;;;;;;5043664;28;20021;-84
2021/10/14 01:56:02;;;;;;;12.88;7.95;;;11.50;92.90;;;;;;5031166;28;20492;-84
2021/10/14 01:58:28;;;;;;;15.63;8.45;;;11.50;92.90;;;;;;5032008;28;20025;-84
2021/10/14 02:00:54;;;;;;;18.55;9.00;;;11.50;92.90;;;;;;5033971;28;20033;-83
2021/10/14 02:03:19;;;;;;;22.90;11.07;;;11.50;93.00;;;;;;5029695;28;20067;-84
2021/10/14 02:05:45;;;;;;;22.67;10.55;;;11.50;93.00;;;;;;5020381;27;20919;-83
2021/10/14 02:08:11;;;;;;;17.85;11.18;;;11.50;93.00;;;;;;5012014;28;20481;-84
2021/10/14 02:10:37;;;;;;;18.38;11.10;;;11.50;93.10;;;;;;5016955;28;20042;-83
2021/10/14 02:13:04;;;;;;;20.65;10.32;;;11.50;93.10;;;;;;5008328;28;20720;-83
2021/10/14 02:15:30;;;;;;;22.33;13.02;;;11.50;93.20;;;;;;5007579;28;20041;-83
2021/10/14 02:17:56;;;;;;;21.33;11.88;;;11.50;93.10;;;;;;4992465;28;20040;-83
2021/10/14 02:20:22;;;;;;;20.88;13.18;;;11.50;93.20;;;;;;5010283;28;20033;-83
2021/10/14 02:22:48;;;;;;;18.58;12.52;;;11.50;93.20;;;;;;5029227;28;20393;-84
2021/10/14 02:25:16;;;;;;;21.40;12.82;;;11.50;93.20;;;;;;5007792;28;20489;-83
2021/10/14 02:27:42;;;;;;;16.38;11.60;;;11.50;93.30;;;;;;5043270;28;20021;-83
2021/10/14 02:30:10;;;;;;;27.33;14.02;;;11.50;93.30;;;;;;5031607;28;20055;-84
2021/10/14 02:32:36;;;;;;;21.70;13.10;;;11.50;93.30;;;;;;5001713;28;20094;-83
2021/10/14 02:35:02;;;;;;;16.52;10.63;;;11.50;93.30;;;;;;5004903;28;20083;-83
2021/10/14 02:37:28;;;;;;;20.67;12.98;;;11.50;93.60;;;;;;4999944;28;20022;-83
2021/10/14 02:39:54;;;;;;;22.38;14.32;;;11.50;93.30;;;;;;5000595;28;20033;-83
2021/10/14 02:42:20;;;;;;;17.90;11.88;;;11.50;93.30;;;;;;5013356;28;20033;-83
2021/10/14 02:44:46;;;;;;;21.13;14.18;;;11.60;93.40;;;;;;5011386;28;20026;-83
2021/10/14 02:47:11;;;;;;;26.27;16.15;;;11.50;93.40;;;;;;4994722;28;20394;-83
2021/10/14 02:49:37;;;;;;;24.45;16.65;;;11.50;93.40;;;;;;5014052;28;20121;-83
2021/10/14 02:52:03;;;;;;;23.60;13.90;;;11.60;93.40;;;;;;5011001;28;20025;-83
2021/10/14 02:54:29;;;;;;;24.80;15.40;;;11.60;93.40;;;;;;5011827;28;20477;-83
2021/10/14 02:56:55;;;;;;;25.67;17.27;;;11.60;93.40;;;;;;5015615;28;20145;-83
2021/10/14 02:59:20;;;;;;;26.45;18.75;;;11.60;93.40;;;;;;5015627;28;20033;-83
2021/10/14 03:01:46;;;;;;;26.35;16.13;;;11.60;93.40;;;;;;5015792;28;20390;-83
2021/10/14 03:04:12;;;;;;;27.80;17.02;;;11.60;93.40;;;;;;4996893;28;20041;-83
2021/10/14 03:06:37;;;;;;;26.17;16.00;;;11.60;93.40;;;;;;5029967;28;20939;-83
2021/10/14 03:09:03;;;;;;;28.83;17.08;;;11.60;93.30;;;;;;4996770;28;20033;-84
2021/10/14 03:11:29;;;;;;;26.70;17.58;;;11.60;93.40;;;;;;5026705;28;20113;-83
2021/10/14 03:13:55;;;;;;;31.65;18.15;;;11.60;93.40;;;;;;4994570;28;20132;-83
2021/10/14 03:16:20;;;;;;;30.15;19.17;;;11.70;93.40;;;;;;5009660;28;20026;-83
2021/10/14 03:18:48;;;;;;;28.15;18.77;;;11.60;93.40;;;;;;5012064;28;20023;-84
2021/10/14 03:21:14;;;;;;;27.92;18.08;;;11.60;93.50;;;;;;5011173;28;20032;-83
2021/10/14 03:23:40;;;;;;;25.10;18.60;;;11.60;93.40;;;;;;5043974;28;20025;-84
2021/10/14 03:26:05;;;;;;;31.38;18.20;;;11.70;93.50;;;;;;5042412;28;20542;-83
2021/10/14 03:28:31;;;;;;;34.08;20.13;;;11.60;93.40;;;;;;5006334;28;20070;-84
2021/10/14 03:30:57;;;;;;;25.65;18.23;;;11.70;93.50;;;;;;5023391;28;20041;-84
2021/10/14 03:33:23;;;;;;;31.60;16.95;;;11.70;93.50;;;;;;4988410;28;20033;-84
2021/10/14 03:35:49;;;;;;;27.33;18.13;;;11.70;93.50;;;;;;5007719;28;20045;-84
2021/10/14 03:38:14;;;;;;;26.00;17.30;;;11.70;93.50;;;;;;4993835;28;20818;-84
2021/10/14 03:40:41;;;;;;;24.27;16.90;;;11.70;93.50;;;;;;5013054;28;20078;-84
2021/10/14 03:43:06;;;;;;;26.80;16.48;;;11.70;93.40;;;;;;5013775;28;20468;-84
2021/10/14 03:45:32;;;;;;;24.83;16.00;;;11.70;93.40;;;;;;5018243;28;20117;-84
2021/10/14 03:47:58;;;;;;;26.15;16.05;;;11.60;93.40;;;;;;5011707;28;20030;-84
2021/10/14 03:50:23;;;;;;;21.70;14.73;;;11.60;93.40;;;;;;5022856;28;20041;-84
2021/10/14 03:52:49;;;;;;;25.95;17.40;;;11.60;93.40;;;;;;5013769;28;20033;-84
2021/10/14 03:55:14;;;;;;;26.60;17.17;;;11.60;93.40;;;;;;5025072;28;20050;-83
2021/10/14 03:57:40;;;;;;;29.52;17.08;;;11.60;93.40;;;;;;5009421;28;20482;-84
2021/10/14 04:00:07;;;;;;;27.73;17.05;;;11.60;93.30;;;;;;5014640;28;20121;-84
2021/10/14 04:02:33;;;;;;;29.10;17.38;;;11.60;93.30;;;;;;5041477;27;20022;-83
2021/10/14 04:04:59;;;;;;;27.63;16.50;;;11.60;93.30;;;;;;5053983;27;20108;-83
2021/10/14 04:07:25;;;;;;;31.52;17.25;;;11.60;93.30;;;;;;5051912;27;20028;-84
2021/10/14 04:09:50;;;;;;;27.80;17.45;;;11.60;93.30;;;;;;5020698;28;20118;-84
2021/10/14 04:12:16;;;;;;;28.90;18.30;;;11.60;93.30;;;;;;5032945;28;20041;-84
2021/10/14 04:14:42;;;;;;;34.28;17.17;;;11.60;93.30;;;;;;5002749;28;20029;-84
2021/10/14 04:17:08;;;;;;;26.05;16.88;;;11.50;93.30;;;;;;5017171;28;20406;-84
2021/10/14 04:19:33;;;;;;;31.17;18.85;;;11.50;93.30;;;;;;5018913;28;20047;-84
2021/10/14 04:21:59;;;;;;;29.77;17.33;;;11.50;93.30;;;;;;5020179;28;20033;-84
2021/10/14 04:24:27;;;;;;;30.92;18.50;;;11.50;93.30;;;;;;4997988;28;20044;-84
2021/10/14 04:26:53;;;;;;;25.92;15.95;;;11.50;93.30;;;;;;5037721;27;20082;-84
2021/10/14 04:29:19;;;;;;;29.67;17.35;;;11.50;93.30;;;;;;5022171;28;20030;-84
2021/10/14 04:31:45;;;;;;;31.45;17.63;;;11.50;93.30;;;;;;5000048;28;20036;-83
2021/10/14 04:34:10;;;;;;;28.65;17.42;;;11.50;93.30;;;;;;5020938;28;20056;-84
2021/10/14 04:36:37;;;;;;;26.15;17.45;;;11.50;93.30;;;;;;5031608;28;20025;-84
2021/10/14 04:39:08;;;;;;;32.05;17.80;;;11.50;93.30;;;;;;5015124;28;20264;-83
2021/10/14 04:41:34;;;;;;;24.75;15.95;;;11.50;93.30;;;;;;5014857;28;20021;-84
2021/10/14 04:44:00;;;;;;;26.50;17.08;;;11.50;93.30;;;;;;5001802;28;20119;-84
2021/10/14 04:46:25;;;;;;;32.67;18.90;;;11.50;93.30;;;;;;5035541;27;20022;-83
2021/10/14 04:48:51;;;;;;;29.50;16.90;;;11.50;93.30;;;;;;5007731;28;20033;-84
2021/10/14 04:51:17;;;;;;;25.38;16.85;;;11.50;93.30;;;;;;4999135;27;20032;-83
2021/10/14 04:53:42;;;;;;;25.63;16.58;;;11.50;93.20;;;;;;4999108;28;20470;-83
2021/10/14 04:56:08;;;;;;;27.13;16.73;;;11.50;93.30;;;;;;5023882;28;20420;-83
2021/10/14 04:58:34;;;;;;;29.77;17.55;;;11.50;93.20;;;;;;5049603;27;20382;-84
2021/10/14 05:00:59;;;;;;;24.33;16.38;;;11.50;93.20;;;;;;5022854;28;20116;-84
2021/10/14 05:03:44;;;;;;;25.90;17.60;;;11.50;93.30;;;;;;5036486;27;20034;-84
2021/10/14 05:06:09;;;;;;;25.48;16.85;;;11.50;93.30;;;;;;5041612;28;20033;-84
2021/10/14 05:08:35;;;;;;;25.65;16.48;;;11.50;93.30;;;;;;5009352;28;20041;-83
2021/10/14 05:11:01;;;;;;;26.55;15.68;;;11.40;93.20;;;;;;5012788;28;20112;-84
2021/10/14 05:13:26;;;;;;;23.75;15.75;;;11.50;93.20;;;;;;5097068;28;20628;-83
2021/10/14 05:15:52;;;;;;;25.27;15.13;;;11.50;93.20;;;;;;5036058;28;20435;-83
2021/10/14 05:18:18;;;;;;;27.45;15.50;;;11.50;93.30;;;;;;5013322;28;20129;-84
2021/10/14 05:20:43;;;;;;;24.10;15.00;;;11.50;93.30;;;;;;5007975;28;20044;-83
2021/10/14 05:23:09;;;;;;;23.17;15.70;;;11.50;93.20;;;;;;5047347;28;20047;-84
2021/10/14 05:25:35;;;;;;;23.63;15.35;;;11.50;93.30;;;;;;5042588;28;20033;-84
2021/10/14 05:28:00;;;;;;;23.80;14.82;;;11.50;93.30;;;;;;5039457;28;20035;-84
2021/10/14 05:30:26;;;;;;;23.48;14.35;;;11.50;93.30;;;;;;5033084;28;20029;-84
2021/10/14 05:32:52;;;;;;;26.95;14.45;;;11.50;93.30;;;;;;5032564;28;20033;-83
2021/10/14 05:35:17;;;;;;;27.75;16.65;;;11.50;93.30;;;;;;5019208;28;20090;-83
2021/10/14 05:37:44;;;;;;;25.42;15.00;;;11.50;93.30;;;;;;5016706;28;20033;-83
2021/10/14 05:40:10;;;;;;;25.15;14.85;;;11.50;93.30;;;;;;5021235;28;20482;-83
2021/10/14 05:42:36;;;;;;;28.30;15.20;;;11.50;93.30;;;;;;5043220;28;20030;-83
2021/10/14 05:45:02;;;;;;;23.98;14.55;;;11.50;93.30;;;;;;5070427;27;20110;-83
2021/10/14 05:47:27;;;;;;;26.60;16.08;;;11.50;93.30;;;;;;5065901;27;20064;-83
2021/10/14 05:49:53;;;;;;;27.08;13.52;;;11.50;93.30;;;;;;5016656;28;20064;-82
2021/10/14 05:52:20;;;;;;;27.10;15.95;;;11.50;93.30;;;;;;4998797;28;20029;-83
2021/10/14 05:54:46;;;;;;;24.83;14.43;;;11.50;93.30;;;;;;5013414;28;20029;-83
2021/10/14 05:57:11;;;;;;;21.70;14.00;;;11.50;93.30;;;;;;5012707;28;20355;-82
2021/10/14 05:59:37;;;;;;;24.67;14.05;;;11.50;93.30;;;;;;4996815;28;20036;-83
2021/10/14 06:02:02;;;;;;;22.02;13.93;;;11.50;93.20;;;;;;5029989;28;20112;-83
2021/10/14 06:04:28;;;;;;;19.65;13.45;;;11.50;93.20;;;;;;4996513;28;20124;-83
2021/10/14 06:06:53;;;;;;;27.27;14.38;;;11.50;93.30;;;;;;5013244;28;20047;-83
2021/10/14 06:09:19;;;;;;;21.77;13.30;;;11.50;93.30;;;;;;5013498;28;20044;-83
2021/10/14 06:11:45;;;;;;;23.67;14.20;;;11.60;93.30;;;;;;4997116;28;20074;-84
2021/10/14 06:14:10;;;;;;;27.95;14.68;;;11.50;93.30;;;;;;5013144;28;20533;-83
2021/10/14 06:16:36;;;;;;;20.95;13.73;;;11.60;93.30;;;;;;5009695;28;20360;-83
2021/10/14 06:19:02;;;;;;;23.27;13.57;;;11.60;93.60;;;;;;5026555;28;20075;-83
2021/10/14 06:21:27;;;;;;;33.72;15.93;;;11.60;93.30;;;;;;5009506;28;20062;-83
2021/10/14 06:23:53;;;;;;;25.33;15.00;;;11.60;93.30;;;;;;5026089;28;20061;-83
2021/10/14 06:26:18;;;;;;;24.73;14.13;;;11.60;93.30;;;;;;5029062;28;20052;-82
2021/10/14 06:28:44;;;;;;;25.23;15.15;;;11.60;93.30;;;;;;5012117;28;20029;-83
2021/10/14 06:31:10;;;;;;;22.25;13.88;;;11.60;93.30;;;;;;4996004;28;20478;-83
2021/10/14 06:33:35;;;;;;;26.13;16.25;;;11.60;93.30;;;;;;4995706;28;20034;-82
2021/10/14 06:36:01;;;;;;;25.30;14.68;;;11.60;93.30;;;;;;4993259;28;20060;-83
2021/10/14 06:38:26;;;;;;;24.88;15.32;;;11.70;93.30;;;;;;5025854;28;20057;-83
2021/10/14 06:40:52;;;;;;;27.92;15.60;;;11.60;93.30;;;;;;5042993;28;20110;-83
2021/10/14 06:43:18;;;;;;;28.90;15.95;;;11.70;93.30;;;;;;5010234;28;20078;-83
2021/10/14 06:45:43;;;;;;;23.50;14.45;;;11.70;93.30;;;;;;5009329;28;20466;-83
2021/10/14 06:48:09;;;;;;;27.48;15.70;;;11.70;93.20;;;;;;5009907;28;20049;-83
2021/10/14 06:50:35;;;;;;;27.40;14.88;;;11.70;93.20;;;;;;5009775;28;20048;-83
2021/10/14 06:53:01;;;;;;;26.00;14.68;;;11.70;93.20;;;;;;5009523;28;20078;-83
2021/10/14 06:55:27;;;;;;;24.80;16.38;;;11.70;93.30;;;;;;4992949;28;20390;-83
2021/10/14 06:57:52;;;;;;;32.83;16.83;;;11.70;93.20;;;;;;5025667;28;20022;-83
2021/10/14 07:00:22;;;;;;;36.72;17.52;;;11.80;93.20;;;;;;5012172;28;20424;-83
2021/10/14 07:02:48;;;;;;;28.08;15.85;;;11.70;93.20;;;;;;5012609;28;20029;-83
2021/10/14 07:05:14;;;;;;;26.27;17.17;;;11.80;93.20;;;;;;4995762;28;20061;-84
2021/10/14 07:07:39;;;;;;;27.60;16.33;;;11.80;93.30;;;;;;5028920;28;20121;-84
2021/10/14 07:10:08;;;;;;;26.67;15.93;;;11.70;93.20;;;;;;5028503;28;20041;-82
2021/10/14 07:12:33;;;;;;;28.67;15.90;;;11.80;93.30;;;;;;5025301;28;20034;-83
2021/10/14 07:14:59;;;;;;;33.20;16.95;;;11.80;93.30;;;;;;5025211;28;20304;-83
2021/10/14 07:17:25;;;;;;;30.52;17.42;;;11.90;93.30;;;;;;5025200;28;20032;-83
2021/10/14 07:19:52;;;;;;;24.75;15.68;;;11.90;93.20;;;;;;5016045;28;20040;-83
2021/10/14 07:22:17;;;;;;;30.00;16.80;;;11.90;93.20;;;;;;4991898;28;20121;-83
2021/10/14 07:24:43;;;;;;;25.42;15.70;;;11.90;93.20;;;;;;5012432;28;20137;-83
2021/10/14 07:27:08;;;;;;;32.38;19.05;;;11.90;93.20;;;;;;5012547;28;20021;-83
2021/10/14 07:29:35;;;;;;;28.15;16.27;;;11.90;93.20;;;;;;5029676;28;20407;-83
2021/10/14 07:32:01;;;;;;;24.98;16.15;;;11.90;93.20;;;;;;5033422;28;20028;-84
2021/10/14 07:34:27;;;;;;;30.08;15.80;;;12.00;93.20;;;;;;5029084;28;20053;-84
2021/10/14 07:36:53;;;;;;;25.45;15.50;;;12.00;93.20;;;;;;5050590;28;20029;-83
2021/10/14 07:39:19;;;;;;;32.13;17.80;;;12.00;93.20;;;;;;5032468;28;20077;-84
2021/10/14 07:41:48;;;;;;;26.80;17.30;;;12.00;93.20;;;;;;5015888;28;20029;-83
2021/10/14 07:44:16;;;;;;;34.17;17.65;;;12.00;93.10;;;;;;4999590;28;20520;-83
2021/10/14 07:46:42;;;;;;;25.88;17.15;;;12.00;93.10;;;;;;5015492;28;20040;-83
2021/10/14 07:49:07;;;;;;;30.73;17.25;;;12.00;93.10;;;;;;5015285;28;20038;-83
2021/10/14 07:51:35;;;;;;;30.80;18.05;;;12.00;93.20;;;;;;5033277;28;20025;-84
2021/10/14 07:54:01;;;;;;;31.92;18.42;;;12.10;93.40;;;;;;5015160;28;20033;-84
2021/10/14 07:56:27;;;;;;;26.63;16.58;;;12.10;93.10;;;;;;5015425;28;20037;-84
2021/10/14 07:58:52;;;;;;;32.60;17.88;;;12.10;93.10;;;;;;5015142;28;20025;-84
2021/10/14 08:01:18;;;;;;;26.20;16.27;;;12.20;93.20;;;;;;4998483;28;20053;-84
2021/10/14 08:03:44;;;;;;;26.80;16.63;;;12.20;93.10;;;;;;5014940;28;20036;-83
2021/10/14 08:06:10;;;;;;;32.83;17.83;;;12.20;93.10;;;;;;5032846;28;20030;-84
2021/10/14 08:08:36;;;;;;;26.65;16.45;;;12.30;93.00;;;;;;5015216;28;20027;-84
2021/10/14 08:11:01;;;;;;;32.55;16.67;;;12.30;93.00;;;;;;5015409;28;20068;-83
2021/10/14 08:13:27;;;;;;;37.35;18.17;;;12.30;93.30;;;;;;5032826;28;20082;-84
2021/10/14 08:15:53;;;;;;;34.35;17.23;;;12.40;92.90;;;;;;5015156;28;20036;-84
2021/10/14 08:18:20;;;;;;;31.65;18.75;;;12.40;92.80;;;;;;5032903;28;20070;-84
2021/10/14 08:20:47;;;;;;;30.38;18.15;;;12.40;92.80;;;;;;4999079;28;20062;-82
2021/10/14 08:23:13;;;;;;;31.92;17.13;;;12.40;92.80;;;;;;4998522;28;20033;-83
2021/10/14 08:25:39;;;;;;;34.90;19.00;;;12.50;92.80;;;;;;5014686;28;20032;-83
2021/10/14 08:28:04;;;;;;;37.70;19.05;;;12.40;92.80;;;;;;5014044;28;20203;-83
2021/10/14 08:30:30;;;;;;;36.80;18.27;;;12.40;92.80;;;;;;5032502;28;20032;-83
2021/10/14 08:32:56;;;;;;;30.17;17.20;;;12.40;92.80;;;;;;4998485;28;20022;-83
2021/10/14 08:35:22;;;;;;;32.50;17.73;;;12.40;92.80;;;;;;4995000;28;20054;-83
2021/10/14 08:37:48;;;;;;;31.38;16.40;;;12.40;93.00;;;;;;5011404;28;20049;-83
2021/10/14 08:40:15;;;;;;;32.03;17.67;;;12.40;92.70;;;;;;5011266;28;20854;-86
2021/10/14 08:42:42;;;;;;;28.63;16.17;;;12.40;92.70;;;;;;5011276;28;20074;-84
2021/10/14 08:45:11;;;;;;;27.42;15.43;;;12.40;92.70;;;;;;5012713;28;20034;-83
2021/10/14 08:47:38;;;;;;;29.33;15.90;;;12.40;92.70;;;;;;5010912;28;20030;-82
2021/10/14 08:50:05;;;;;;;30.92;17.10;;;12.40;92.70;;;;;;5028053;28;20410;-85
2021/10/14 08:52:30;;;;;;;26.30;14.95;;;12.40;92.70;;;;;;5027807;28;20026;-88
2021/10/14 08:54:57;;;;;;;31.88;14.98;;;12.40;92.60;;;;;;5012217;28;20036;-88
2021/10/14 08:57:23;;;;;;;26.20;15.20;;;12.40;92.60;;;;;;5010115;28;20026;-88
2021/10/14 08:59:48;;;;;;;28.55;15.65;;;12.40;92.90;;;;;;5010928;28;20383;-87
2021/10/14 09:02:19;;;;;;;32.70;15.15;;;12.40;92.80;;;;;;5010758;28;20051;-88
2021/10/14 09:04:47;;;;;;;27.55;14.60;;;12.50;92.60;;;;;;5010775;28;20048;-88
2021/10/14 09:07:15;;;;;;;25.45;13.90;;;12.50;92.60;;;;;;5011851;28;20056;-88
2021/10/14 09:09:42;;;;;;;27.08;13.52;;;12.50;92.50;;;;;;5010731;28;20026;-88
2021/10/14 09:12:09;;;;;;;23.30;13.43;;;12.50;92.50;;;;;;5012009;28;20026;-86
2021/10/14 09:14:54;;;;;;;23.30;12.93;;;12.50;92.50;;;;;;5011803;28;20363;-87
2021/10/14 09:17:36;;;;;;;26.70;14.10;;;12.50;92.40;;;;;;5009940;28;20505;-85
2021/10/14 09:20:25;;;;;;;26.27;13.50;;;12.50;92.40;;;;;;5010799;28;20113;-86
2021/10/14 09:22:58;;;;;;;;;;;12.60;92.50;;;;;;5011087;28;20022;-86
2021/10/14 09:25:34;;;;;;;22.95;13.70;;;12.60;92.40;;;;;;5043502;28;19909;-86
2021/10/14 09:28:16;;;;;;;25.88;12.75;;;12.60;92.50;;;;;;4991092;28;20030;-86
2021/10/14 09:30:43;;;;;;;23.23;13.07;;;12.70;92.40;;;;;;5023503;28;20037;-86
2021/10/14 09:33:35;;;;;;;22.40;13.50;;;12.70;92.40;;;;;;4991174;28;20038;-86
2021/10/14 09:36:17;;;;;;;26.63;13.88;;;12.70;92.40;;;;;;4992122;28;20121;-85
2021/10/14 09:38:45;;;;;;;28.63;12.63;;;12.70;92.30;;;;;;4989942;28;20479;-86
2021/10/14 09:41:14;;;;;;;26.15;13.63;;;12.70;92.30;;;;;;5000158;28;20026;-86
2021/10/14 09:43:41;;;;;;;25.90;13.02;;;12.80;92.30;;;;;;5011278;28;20471;-87
2021/10/14 09:46:07;;;;;;;26.90;12.55;;;12.80;92.40;;;;;;4994543;28;20038;-87
2021/10/14 09:48:36;;;;;;;26.70;12.55;;;12.80;92.30;;;;;;5010218;28;20030;-87
2021/10/14 09:51:02;;;;;;;;;;;12.80;92.10;;;;;;5008039;28;20083;-88
2021/10/14 09:53:28;;;;;;;23.52;11.02;;;12.90;92.10;;;;;;5008315;28;20312;-86
2021/10/14 09:55:55;;;;;;;21.95;11.98;;;12.90;92.20;;;;;;5007620;28;20070;-87
2021/10/14 09:58:25;;;;;;;24.02;13.00;;;13.00;92.20;;;;;;4991241;28;20492;-85
2021/10/14 10:00:52;;;;;;;22.58;13.27;;;13.00;92.20;;;;;;5008304;28;20026;-83
2021/10/14 10:03:22;;;;;;;25.77;13.30;;;13.00;92.20;;;;;;5009892;28;20037;-85
2021/10/14 10:05:51;;;;;;;25.33;13.45;;;13.10;92.50;;;;;;5010264;28;20033;-83
2021/10/14 10:08:35;;;;;;;21.45;12.77;;;13.10;92.20;;;;;;5010099;28;20030;-84
2021/10/14 10:11:05;;;;;;;26.45;12.55;;;13.10;92.20;;;;;;5009792;28;20030;-85
2021/10/14 10:13:33;;;;;;;24.05;14.65;;;13.20;92.10;;;;;;5023669;28;20078;-84
2021/10/14 10:16:19;;;;;;;25.33;14.90;;;13.30;92.40;;;;;;5029741;28;20029;-86
2021/10/14 10:18:49;;;;;;;26.73;13.27;;;13.30;92.10;;;;;;5029594;28;20478;-84
2021/10/14 10:21:30;;;;;;;27.60;14.50;;;13.40;92.10;;;;;;5000503;28;20052;-83
2021/10/14 10:24:00;;;;;;;32.20;13.90;;;13.40;91.90;;;;;;5022502;28;20853;-84
2021/10/14 10:26:35;;;;;;;23.83;14.15;;;13.50;91.90;;;;;;5029419;28;20039;-83
2021/10/14 10:29:12;;;;;;;22.45;13.63;;;13.50;91.90;;;;;;5029425;28;20049;-83
2021/10/14 10:31:56;;;;;;;24.50;13.70;;;13.60;91.90;;;;;;5011617;28;20398;-83
2021/10/14 10:34:57;;;;;;;24.30;14.18;;;13.60;91.90;;;;;;5009264;28;20513;-84
2021/10/14 10:37:48;;;;;;;30.48;14.70;;;13.70;91.90;;;;;;5021335;28;20065;-83
2021/10/14 10:40:16;;;;;;;27.17;14.73;;;13.80;91.80;;;;;;5020959;28;20033;-83
2021/10/14 10:42:44;;;;;;;30.63;16.25;;;13.80;91.80;;;;;;5009309;28;20089;-83
2021/10/14 10:45:19;;;;;;;28.13;16.42;;;13.80;91.80;;;;;;5009524;28;20029;-83
2021/10/14 10:47:54;;;;;;;26.48;15.90;;;14.00;91.80;;;;;;5009419;28;20033;-84
2021/10/14 10:50:43;;;;;;;24.20;16.02;;;14.00;91.70;;;;;;5010200;28;20100;-87
2021/10/14 10:53:24;;;;;;;31.05;16.92;;;14.10;91.70;;;;;;5026044;28;20030;-87
2021/10/14 10:55:57;;;;;;;25.05;16.38;;;14.10;91.70;;;;;;5010549;28;20026;-87
2021/10/14 10:58:32;;;;;;;30.13;16.52;;;14.20;91.90;;;;;;5009484;28;20030;-85
2021/10/14 11:00:59;;;;;;;28.83;17.00;;;14.20;91.80;;;;;;5008960;28;20419;-86
2021/10/14 11:03:26;;;;;;;27.30;17.90;;;14.30;91.70;;;;;;5006703;28;20064;-86
2021/10/14 11:05:54;;;;;;;29.65;15.48;;;14.40;91.60;;;;;;5006333;28;20109;-86
2021/10/14 11:08:22;;;;;;;25.23;16.33;;;14.50;91.60;;;;;;5007487;28;20018;-86
2021/10/14 11:10:55;;;;;;;25.70;15.20;;;14.60;91.60;;;;;;5006779;28;20026;-86
2021/10/14 11:13:23;;;;;;;22.77;16.45;;;14.60;91.50;;;;;;5006293;28;20519;-86
2021/10/14 11:15:53;;;;;;;26.05;16.13;;;14.70;91.50;;;;;;5010024;28;20022;-85
2021/10/14 11:18:24;;;;;;;28.80;18.30;;;14.70;91.40;;;;;;4993408;28;20034;-86
2021/10/14 11:21:12;;;;;;;26.58;17.13;;;14.70;91.40;;;;;;5010461;28;20026;-85
2021/10/14 11:23:40;;;;;;;26.37;16.67;;;14.70;91.40;;;;;;5008835;28;20042;-86
2021/10/14 11:26:07;;;;;;;26.55;16.48;;;14.80;91.50;;;;;;5010487;28;20026;-87
2021/10/14 11:29:01;;;;;;;25.60;16.80;;;14.80;91.50;;;;;;5010615;28;20680;-87
2021/10/14 11:34:26;;;;;;;27.83;16.00;;;14.90;91.40;;;;;;4997563;28;20056;-86
2021/10/14 11:36:57;;;;;;;24.20;16.23;;;14.90;91.40;;;;;;5010326;28;20494;-86
2021/10/14 11:39:30;;;;;;;24.70;14.48;;;14.90;91.40;;;;;;5025290;28;20026;-85
2021/10/14 11:42:02;;;;;;;27.08;15.50;;;15.00;91.20;;;;;;5078741;27;20031;-87
2021/10/14 11:44:32;;;;;;;25.48;14.75;;;15.10;91.30;;;;;;5134017;28;20376;-85
2021/10/14 11:46:58;;;;;;;24.90;14.98;;;15.10;91.10;;;;;;5149917;27;20110;-86
2021/10/14 11:49:24;;;;;;;21.80;14.07;;;15.10;90.90;;;;;;5060732;28;20059;-86
2021/10/14 11:51:51;;;;;;;21.08;14.18;;;15.20;90.90;;;;;;5064558;28;20033;-87
2021/10/14 11:54:17;;;;;;;23.52;14.77;;;15.20;90.60;;;;;;5025557;28;20548;-87
2021/10/14 11:56:52;;;;;;;24.02;15.35;;;15.30;90.60;;;;;;5041365;28;20390;-86
2021/10/14 11:59:20;;;;;;;24.65;13.80;;;15.50;90.90;;;;;;5107692;28;20383;-86
2021/10/14 12:01:50;;;;;;;23.90;13.20;;;15.60;90.70;;;;;;5012317;28;20025;-87
2021/10/14 12:04:19;;;;;;;22.38;13.95;;;15.90;90.40;;;;;;5014708;28;20108;-87
2021/10/14 12:06:46;;;;;;;21.67;13.57;;;16.00;89.80;;;;;;5014448;28;20878;-87
2021/10/14 12:09:19;;;;;;;18.63;12.63;;;16.20;89.50;;;;;;5032218;28;20113;-87
2021/10/14 12:11:45;;;;;;;21.38;11.82;;;16.30;89.30;;;;;;5032510;28;20026;-87
2021/10/14 12:14:10;;;;;;;20.02;12.75;;;16.40;88.60;;;;;;5032285;28;20097;-87
2021/10/14 12:16:36;;;;;;;18.60;12.57;;;16.50;88.00;;;;;;4997758;28;20121;-86
2021/10/14 12:19:13;;;;;;;17.33;12.40;;;16.50;87.80;;;;;;5014570;28;20032;-86
2021/10/14 12:21:41;;;;;;;20.48;12.70;;;16.60;88.00;;;;;;5014372;28;20066;-81
2021/10/14 12:24:20;;;;;;;18.33;12.20;;;16.50;87.70;;;;;;5013923;28;20029;-81
2021/10/14 12:26:48;;;;;;;18.15;11.27;;;16.40;87.70;;;;;;5014958;28;20036;-84
2021/10/14 12:29:32;;;;;;;17.77;11.73;;;16.30;87.90;;;;;;5014325;28;20067;-84
2021/10/14 12:32:09;;;;;;;22.55;11.85;;;16.30;88.20;;;;;;5032537;28;20026;-84
2021/10/14 12:34:55;;;;;;;20.13;11.85;;;16.30;88.70;;;;;;5014312;28;20095;-84